Terminal Aerodrome Forecast
Issued by NWS Wilmington, OH

Current Version | Previous Version | Graphics & Text | Print | Product List | Glossary On
Versions: 1 2 3 4 5 6 7 8 9 10 11 12 13 14
000
FTUS41 KILN 032300
TAFDAY
TAF
KDAY 032327Z 0400/0424 20009KT P6SM FEW080 BKN250
     FM040100 18007KT P6SM SCT150
     FM040700 19009KT P6SM BKN150
     FM041500 22014G22KT P6SM SCT050 BKN150
     FM042200 22011KT P6SM BKN070=

USA.gov is the U.S. government's official web portal to all federal, state and local government web resources and services.